Time;durP1;ratioP1;P1;durP2;ratioP2;P2;SDS_P1;SDS_P2;PMS_P1;PMS_P2;Temp;Humidity;BMP_temperature;BMP_pressure;BME280_temperature;BME280_humidity;BME280_pressure;Samples;Min_cycle;Max_cycle;Signal;HPM_P1;HPM_P2
2022/07/17 00:01:28;;;;;;;7.18;4.50;;;;;;;;;;5035702;28;20041;-62
2022/07/17 00:03:56;;;;;;;5.85;4.32;;;;;;;;;;5035611;28;20439;-63
2022/07/17 00:06:24;;;;;;;7.22;4.35;;;;;;;;;;5035627;28;20111;-63
2022/07/17 00:08:52;;;;;;;9.18;4.03;;;;;;;;;;5035419;28;20479;-63
2022/07/17 00:11:19;;;;;;;7.00;3.70;;;;;;;;;;5034123;28;20053;-62
2022/07/17 00:13:47;;;;;;;4.03;2.90;;;;;;;;;;5035561;28;20041;-63
2022/07/17 00:16:14;;;;;;;9.52;3.20;;;;;;;;;;5035723;28;20136;-63
2022/07/17 00:18:42;;;;;;;5.68;3.15;;;;;;;;;;5035453;28;20052;-63
2022/07/17 00:21:09;;;;;;;5.93;3.30;;;;;;;;;;5035527;28;20434;-63
2022/07/17 00:23:37;;;;;;;5.47;2.80;;;;;;;;;;5035267;28;20037;-63
2022/07/17 00:26:05;;;;;;;7.50;3.08;;;;;;;;;;5035525;28;20079;-63
2022/07/17 00:28:32;;;;;;;7.30;3.30;;;;;;;;;;5035198;28;20071;-63
2022/07/17 00:31:01;;;;;;;5.03;2.92;;;;;;;;;;5034040;28;20045;-63
2022/07/17 00:33:29;;;;;;;6.18;3.00;;;;;;;;;;5033902;28;20427;-63
2022/07/17 00:35:56;;;;;;;5.78;3.42;;;;;;;;;;5035133;28;20039;-63
2022/07/17 00:38:24;;;;;;;7.78;3.22;;;;;;;;;;5035082;28;20065;-63
2022/07/17 00:41:00;;;;;;;7.38;3.30;;;;;;;;;;5034974;28;20541;-63
2022/07/17 00:43:28;;;;;;;6.70;3.47;;;;;;;;;;5035260;28;20056;-62
2022/07/17 00:45:57;;;;;;;4.82;3.25;;;;;;;;;;5034922;28;20054;-62
2022/07/17 00:48:25;;;;;;;5.80;3.15;;;;;;;;;;5034028;28;20045;-63
2022/07/17 00:50:54;;;;;;;4.35;3.22;;;;;;;;;;5033477;28;20495;-63
2022/07/17 00:53:22;;;;;;;5.95;3.22;;;;;;;;;;5034804;28;20124;-63
2022/07/17 00:55:51;;;;;;;9.15;3.22;;;;;;;;;;5034820;28;20040;-63
2022/07/17 00:58:21;;;;;;;5.20;3.20;;;;;;;;;;5033421;28;20046;-63
2022/07/17 01:00:49;;;;;;;10.30;3.78;;;;;;;;;;5034646;28;20065;-63
2022/07/17 01:03:17;;;;;;;7.70;3.50;;;;;;;;;;5034488;28;20077;-63
2022/07/17 01:05:45;;;;;;;5.18;3.40;;;;;;;;;;5034521;28;20103;-63
2022/07/17 01:08:13;;;;;;;6.35;3.22;;;;;;;;;;5034653;28;20068;-63
2022/07/17 01:10:40;;;;;;;8.75;3.67;;;;;;;;;;5034305;28;20046;-63
2022/07/17 01:13:08;;;;;;;8.77;3.40;;;;;;;;;;5034413;28;20033;-63
2022/07/17 01:15:37;;;;;;;7.40;3.40;;;;;;;;;;5034509;28;20156;-63
2022/07/17 01:18:07;;;;;;;10.07;3.50;;;;;;;;;;5034382;28;20045;-63
2022/07/17 01:20:35;;;;;;;7.65;4.00;;;;;;;;;;5034497;28;20499;-62
2022/07/17 01:23:03;;;;;;;6.75;3.65;;;;;;;;;;5034249;28;20517;-63
2022/07/17 01:25:31;;;;;;;5.95;3.50;;;;;;;;;;5034511;28;20124;-63
2022/07/17 01:27:59;;;;;;;8.02;4.22;;;;;;;;;;5034107;28;20034;-63
2022/07/17 01:30:27;;;;;;;6.97;4.22;;;;;;;;;;5033988;28;20056;-63
2022/07/17 01:32:55;;;;;;;7.90;4.53;;;;;;;;;;5034018;28;20133;-63
2022/07/17 01:35:22;;;;;;;7.20;4.75;;;;;;;;;;5034120;28;20045;-63
2022/07/17 01:37:50;;;;;;;8.98;4.70;;;;;;;;;;5033850;28;20056;-63
2022/07/17 01:40:18;;;;;;;10.13;4.50;;;;;;;;;;5034016;28;20044;-63
2022/07/17 01:42:48;;;;;;;8.18;5.00;;;;;;;;;;5033994;28;20073;-63
2022/07/17 01:45:16;;;;;;;7.88;4.38;;;;;;;;;;5033666;28;20049;-62
2022/07/17 01:47:44;;;;;;;6.85;4.53;;;;;;;;;;5033777;28;20045;-62
2022/07/17 01:50:12;;;;;;;8.63;5.05;;;;;;;;;;5033742;28;20483;-63
2022/07/17 01:52:41;;;;;;;8.50;5.28;;;;;;;;;;5033733;28;20052;-62
2022/07/17 01:55:10;;;;;;;8.48;5.10;;;;;;;;;;5032525;28;20045;-62
2022/07/17 01:57:37;;;;;;;9.40;4.75;;;;;;;;;;5033621;28;20041;-63
2022/07/17 02:00:06;;;;;;;7.90;4.93;;;;;;;;;;5033392;28;20080;-63
2022/07/17 02:02:34;;;;;;;9.07;5.00;;;;;;;;;;5033448;28;20067;-62
2022/07/17 02:05:02;;;;;;;9.77;5.40;;;;;;;;;;5033454;28;20053;-62
2022/07/17 02:07:31;;;;;;;10.70;5.90;;;;;;;;;;5033398;28;20041;-62
2022/07/17 02:09:58;;;;;;;9.35;5.55;;;;;;;;;;5033813;28;20137;-62
2022/07/17 02:12:26;;;;;;;13.68;5.32;;;;;;;;;;5033750;28;20052;-62
2022/07/17 02:14:53;;;;;;;11.52;5.13;;;;;;;;;;5033301;28;20041;-63
2022/07/17 02:17:21;;;;;;;16.42;6.07;;;;;;;;;;5033752;28;20049;-63
2022/07/17 02:19:49;;;;;;;15.10;6.03;;;;;;;;;;5033078;28;20483;-62
2022/07/17 02:22:16;;;;;;;8.55;5.65;;;;;;;;;;5032061;28;20057;-62
2022/07/17 02:24:43;;;;;;;10.63;6.00;;;;;;;;;;5033051;28;20041;-62
2022/07/17 02:27:11;;;;;;;8.90;5.57;;;;;;;;;;5031887;28;20049;-62
2022/07/17 02:29:39;;;;;;;13.30;5.78;;;;;;;;;;5033046;28;20521;-63
2022/07/17 02:32:06;;;;;;;8.43;6.13;;;;;;;;;;5032888;28;20499;-63
2022/07/17 02:34:34;;;;;;;11.85;6.07;;;;;;;;;;5032894;28;20073;-63
2022/07/17 02:37:01;;;;;;;9.13;6.70;;;;;;;;;;5032123;28;20447;-63
2022/07/17 02:39:29;;;;;;;8.07;6.40;;;;;;;;;;5032787;28;20034;-63
2022/07/17 02:41:56;;;;;;;8.98;6.80;;;;;;;;;;5032846;28;20042;-63
2022/07/17 02:44:24;;;;;;;8.95;6.63;;;;;;;;;;5032608;28;20042;-63
2022/07/17 02:46:51;;;;;;;8.88;6.53;;;;;;;;;;5032751;28;20049;-63
2022/07/17 02:49:19;;;;;;;11.88;6.80;;;;;;;;;;5032652;28;20551;-63
2022/07/17 02:51:46;;;;;;;8.52;6.47;;;;;;;;;;5031050;28;20041;-63
2022/07/17 02:54:14;;;;;;;9.25;6.55;;;;;;;;;;5032484;28;20067;-63
2022/07/17 02:56:41;;;;;;;9.05;6.20;;;;;;;;;;5032361;28;20045;-63
2022/07/17 02:59:09;;;;;;;10.93;6.57;;;;;;;;;;5032800;28;20562;-63
2022/07/17 03:01:36;;;;;;;8.45;6.20;;;;;;;;;;5032332;28;20099;-63
2022/07/17 03:04:04;;;;;;;11.38;6.30;;;;;;;;;;5032568;28;20041;-63
2022/07/17 03:06:32;;;;;;;8.60;6.03;;;;;;;;;;5032415;28;20069;-63
2022/07/17 03:08:59;;;;;;;9.98;6.30;;;;;;;;;;5032339;28;20052;-63
2022/07/17 03:11:27;;;;;;;8.07;6.20;;;;;;;;;;5031837;28;20041;-63
2022/07/17 03:13:55;;;;;;;14.60;9.00;;;;;;;;;;5031142;28;20095;-63
2022/07/17 03:16:22;;;;;;;14.82;10.32;;;;;;;;;;5032499;28;20041;-63
2022/07/17 03:18:50;;;;;;;16.67;11.65;;;;;;;;;;5032293;28;20044;-63
2022/07/17 03:21:17;;;;;;;14.38;9.77;;;;;;;;;;5032057;28;20077;-63
2022/07/17 03:23:45;;;;;;;11.05;8.30;;;;;;;;;;5032082;28;20128;-63
2022/07/17 03:26:12;;;;;;;11.68;9.30;;;;;;;;;;5032011;28;20049;-63
2022/07/17 03:28:40;;;;;;;12.05;9.13;;;;;;;;;;5032094;28;20045;-63
2022/07/17 03:31:08;;;;;;;21.80;17.30;;;;;;;;;;5032114;28;20033;-63
2022/07/17 03:33:36;;;;;;;17.77;9.82;;;;;;;;;;5031854;28;20153;-63
2022/07/17 03:36:03;;;;;;;10.02;6.18;;;;;;;;;;5032167;28;20045;-63
2022/07/17 03:38:31;;;;;;;16.33;13.73;;;;;;;;;;5032043;28;20450;-63
2022/07/17 03:40:59;;;;;;;12.60;8.98;;;;;;;;;;5032130;28;20411;-63
2022/07/17 03:43:26;;;;;;;12.93;8.30;;;;;;;;;;5031961;28;20129;-63
2022/07/17 03:45:53;;;;;;;10.23;8.32;;;;;;;;;;5031909;28;20095;-63
2022/07/17 03:48:21;;;;;;;18.48;13.23;;;;;;;;;;5031917;28;20085;-63
2022/07/17 03:50:49;;;;;;;10.77;7.40;;;;;;;;;;5030666;28;20053;-63
2022/07/17 03:53:16;;;;;;;10.55;7.95;;;;;;;;;;5031952;28;20108;-64
2022/07/17 03:55:44;;;;;;;13.98;7.63;;;;;;;;;;5032105;28;20041;-63
2022/07/17 03:58:11;;;;;;;11.98;8.18;;;;;;;;;;5031942;28;20046;-63
2022/07/17 04:00:39;;;;;;;11.25;8.50;;;;;;;;;;5031923;28;20466;-63
2022/07/17 04:03:06;;;;;;;8.80;6.10;;;;;;;;;;5031922;28;20084;-63
2022/07/17 04:05:34;;;;;;;13.15;7.10;;;;;;;;;;5031870;28;20125;-63
2022/07/17 04:08:01;;;;;;;10.18;6.43;;;;;;;;;;5031789;28;20037;-63
2022/07/17 04:10:29;;;;;;;12.52;6.40;;;;;;;;;;5030760;28;20041;-63
2022/07/17 04:12:56;;;;;;;9.90;6.80;;;;;;;;;;5032065;28;20049;-63
2022/07/17 04:18:10;;;;;;;15.32;8.27;;;;;;;;;;5030752;28;20141;-63
2022/07/17 04:20:37;;;;;;;13.27;7.28;;;;;;;;;;5031672;28;20037;-63
2022/07/17 04:23:05;;;;;;;10.20;6.13;;;;;;;;;;5031876;28;20140;-63
2022/07/17 04:25:32;;;;;;;8.60;5.93;;;;;;;;;;5017896;28;20088;-63
2022/07/17 04:28:00;;;;;;;11.20;6.15;;;;;;;;;;5035118;28;20076;-63
2022/07/17 04:30:27;;;;;;;7.88;6.05;;;;;;;;;;5034734;28;20488;-67
2022/07/17 04:32:55;;;;;;;10.93;5.32;;;;;;;;;;5035086;28;20120;-63
2022/07/17 04:35:22;;;;;;;7.88;5.50;;;;;;;;;;5035351;28;20407;-63
2022/07/17 04:37:50;;;;;;;9.52;5.93;;;;;;;;;;5035315;28;20041;-63
2022/07/17 04:40:17;;;;;;;8.60;5.93;;;;;;;;;;5035550;28;20048;-63
2022/07/17 04:42:45;;;;;;;8.65;5.55;;;;;;;;;;5033610;28;20049;-63
2022/07/17 04:45:16;;;;;;;9.30;6.00;;;;;;;;;;5046524;28;20156;-64
2022/07/17 04:47:43;;;;;;;8.32;5.50;;;;;;;;;;5054465;28;20064;-64
2022/07/17 04:50:11;;;;;;;9.57;5.38;;;;;;;;;;5053421;28;20037;-64
2022/07/17 04:52:38;;;;;;;10.30;5.68;;;;;;;;;;5054565;28;20044;-64
2022/07/17 04:55:06;;;;;;;11.60;5.43;;;;;;;;;;5054618;28;20048;-64
2022/07/17 04:57:33;;;;;;;8.52;5.35;;;;;;;;;;5054526;28;20068;-64
2022/07/17 05:00:01;;;;;;;11.32;5.40;;;;;;;;;;5054442;28;20037;-64
2022/07/17 05:02:28;;;;;;;7.65;5.07;;;;;;;;;;5054534;28;20403;-65
2022/07/17 05:04:56;;;;;;;11.02;5.47;;;;;;;;;;5053449;28;20040;-64
2022/07/17 05:07:24;;;;;;;7.40;5.38;;;;;;;;;;5054390;28;20044;-65
2022/07/17 05:09:51;;;;;;;15.20;5.60;;;;;;;;;;5054214;28;20115;-65
2022/07/17 05:12:19;;;;;;;16.20;5.70;;;;;;;;;;5052770;28;20041;-64
2022/07/17 05:14:46;;;;;;;9.38;5.95;;;;;;;;;;5054269;28;20049;-65
2022/07/17 05:17:14;;;;;;;8.65;5.63;;;;;;;;;;5053106;28;20087;-64
2022/07/17 05:19:41;;;;;;;9.00;5.25;;;;;;;;;;5052885;28;20033;-64
2022/07/17 05:22:09;;;;;;;8.00;5.30;;;;;;;;;;5053452;28;20071;-64
2022/07/17 05:24:36;;;;;;;9.13;4.78;;;;;;;;;;5053907;28;20056;-64
2022/07/17 05:27:04;;;;;;;6.97;4.45;;;;;;;;;;5054111;28;20041;-64
2022/07/17 05:29:31;;;;;;;9.50;5.10;;;;;;;;;;5054056;28;20040;-64
2022/07/17 05:31:59;;;;;;;7.45;5.00;;;;;;;;;;5053981;28;20524;-64
2022/07/17 05:34:26;;;;;;;9.70;5.18;;;;;;;;;;5053201;28;20564;-64
2022/07/17 05:36:54;;;;;;;10.48;5.15;;;;;;;;;;5054334;28;20124;-64
2022/07/17 05:39:21;;;;;;;10.82;4.90;;;;;;;;;;5053845;28;20098;-64
2022/07/17 05:41:49;;;;;;;14.15;4.82;;;;;;;;;;5053663;28;20491;-64
2022/07/17 05:44:16;;;;;;;14.43;4.95;;;;;;;;;;5053969;28;20057;-64
2022/07/17 05:46:44;;;;;;;11.65;4.30;;;;;;;;;;5053646;28;20053;-64
2022/07/17 05:49:11;;;;;;;13.88;4.53;;;;;;;;;;5053734;28;20441;-64
2022/07/17 05:51:39;;;;;;;15.55;5.20;;;;;;;;;;5053745;28;20065;-64
2022/07/17 05:54:06;;;;;;;9.23;4.57;;;;;;;;;;5053605;28;20045;-64
2022/07/17 05:56:34;;;;;;;15.80;4.78;;;;;;;;;;5053555;28;20425;-64
2022/07/17 05:59:01;;;;;;;10.23;5.03;;;;;;;;;;5053498;28;20045;-64
2022/07/17 06:01:29;;;;;;;6.85;4.20;;;;;;;;;;5053567;28;20045;-64
2022/07/17 06:03:57;;;;;;;7.72;4.15;;;;;;;;;;5053587;28;20398;-64
2022/07/17 06:06:25;;;;;;;9.88;4.32;;;;;;;;;;5053582;28;20454;-64
2022/07/17 06:08:52;;;;;;;15.82;3.97;;;;;;;;;;5053348;28;20048;-64
2022/07/17 06:11:20;;;;;;;8.63;3.58;;;;;;;;;;5053431;28;20120;-64
2022/07/17 06:13:55;;;;;;;6.85;3.85;;;;;;;;;;5053322;28;20450;-64
2022/07/17 06:16:23;;;;;;;5.85;3.42;;;;;;;;;;5053496;28;20438;-65
2022/07/17 06:18:50;;;;;;;7.55;3.50;;;;;;;;;;5053045;28;20038;-64
2022/07/17 06:21:19;;;;;;;5.82;3.40;;;;;;;;;;5053062;28;20143;-65
2022/07/17 06:23:47;;;;;;;7.20;3.88;;;;;;;;;;5052814;28;20102;-65
2022/07/17 06:26:14;;;;;;;9.07;3.97;;;;;;;;;;5052963;28;20121;-65
2022/07/17 06:28:41;;;;;;;8.07;4.20;;;;;;;;;;5051853;28;20052;-65
2022/07/17 06:31:09;;;;;;;11.40;4.10;;;;;;;;;;5052922;28;20086;-64
2022/07/17 06:33:37;;;;;;;7.55;3.90;;;;;;;;;;5052866;28;20045;-65
2022/07/17 06:36:04;;;;;;;9.32;3.85;;;;;;;;;;5052864;28;20037;-65
2022/07/17 06:38:33;;;;;;;7.15;3.67;;;;;;;;;;5051700;28;20517;-65
2022/07/17 06:41:01;;;;;;;7.80;4.38;;;;;;;;;;5052699;28;20045;-65
2022/07/17 06:43:28;;;;;;;13.48;4.55;;;;;;;;;;5052790;28;20116;-65
2022/07/17 06:45:56;;;;;;;8.40;4.50;;;;;;;;;;5051756;28;20041;-65
2022/07/17 06:48:24;;;;;;;14.27;4.07;;;;;;;;;;5052544;28;20044;-65
2022/07/17 06:50:52;;;;;;;6.30;3.60;;;;;;;;;;5052645;28;20037;-65
2022/07/17 06:53:19;;;;;;;16.65;13.48;;;;;;;;;;5052803;28;20361;-65
2022/07/17 06:55:47;;;;;;;15.52;9.07;;;;;;;;;;5052487;28;20052;-65
2022/07/17 06:58:14;;;;;;;4.25;3.10;;;;;;;;;;5052416;28;20049;-64
2022/07/17 07:00:42;;;;;;;5.22;3.65;;;;;;;;;;5052435;28;20430;-65
2022/07/17 07:03:09;;;;;;;4.82;3.15;;;;;;;;;;5052306;28;20045;-65
2022/07/17 07:05:37;;;;;;;6.78;3.40;;;;;;;;;;5052395;28;20041;-65
2022/07/17 07:08:04;;;;;;;8.93;3.20;;;;;;;;;;5036092;28;20029;-65
2022/07/17 07:10:32;;;;;;;4.90;3.25;;;;;;;;;;5031302;28;20041;-66
2022/07/17 07:12:59;;;;;;;6.13;3.35;;;;;;;;;;5032141;28;20060;-72
2022/07/17 07:15:27;;;;;;;5.45;3.33;;;;;;;;;;5031766;28;20076;-66
2022/07/17 07:17:54;;;;;;;6.55;2.95;;;;;;;;;;5032160;28;20103;-66
2022/07/17 07:20:22;;;;;;;7.00;3.40;;;;;;;;;;5032160;28;20132;-63
2022/07/17 07:22:49;;;;;;;6.50;3.00;;;;;;;;;;5031808;28;20084;-63
2022/07/17 07:25:17;;;;;;;9.10;4.55;;;;;;;;;;5032242;28;20052;-63
2022/07/17 07:27:45;;;;;;;5.50;3.65;;;;;;;;;;5031941;28;20498;-62
2022/07/17 07:30:12;;;;;;;5.95;3.78;;;;;;;;;;5032057;28;20053;-64
2022/07/17 07:32:41;;;;;;;7.30;3.78;;;;;;;;;;5032202;28;20041;-64
2022/07/17 07:35:09;;;;;;;5.65;2.90;;;;;;;;;;5031995;28;20056;-68
2022/07/17 07:37:37;;;;;;;10.48;6.30;;;;;;;;;;5032133;28;20038;-66
2022/07/17 07:40:06;;;;;;;6.97;3.03;;;;;;;;;;5032150;28;20041;-71
2022/07/17 07:42:34;;;;;;;4.80;3.30;;;;;;;;;;5031990;28;20129;-64
2022/07/17 07:45:01;;;;;;;5.72;3.40;;;;;;;;;;5031931;28;20049;-64
2022/07/17 07:47:30;;;;;;;4.93;3.15;;;;;;;;;;5031320;28;20491;-64
2022/07/17 07:49:57;;;;;;;3.47;3.17;;;;;;;;;;5031377;28;20491;-65
2022/07/17 07:52:25;;;;;;;4.82;2.83;;;;;;;;;;5031307;28;20037;-63
2022/07/17 07:54:52;;;;;;;4.47;2.40;;;;;;;;;;5031420;28;20076;-65
2022/07/17 07:57:21;;;;;;;7.70;4.80;;;;;;;;;;5032342;28;20045;-65
2022/07/17 07:59:49;;;;;;;6.43;3.30;;;;;;;;;;5032853;28;20083;-65
2022/07/17 08:02:17;;;;;;;8.40;4.20;;;;;;;;;;5033804;28;20038;-66
2022/07/17 08:04:44;;;;;;;14.48;3.38;;;;;;;;;;5035024;28;20037;-65
2022/07/17 08:07:12;;;;;;;6.18;3.20;;;;;;;;;;5034965;28;20037;-66
2022/07/17 08:09:39;;;;;;;7.03;3.78;;;;;;;;;;5035272;28;20120;-64
2022/07/17 08:12:07;;;;;;;6.75;2.83;;;;;;;;;;5034840;28;20071;-63
2022/07/17 08:14:54;;;;;;;7.88;2.88;;;;;;;;;;5035090;28;20041;-66
2022/07/17 08:17:22;;;;;;;5.03;2.88;;;;;;;;;;5035204;28;20522;-64
2022/07/17 08:19:49;;;;;;;4.13;2.88;;;;;;;;;;5035263;28;20087;-64
2022/07/17 08:22:17;;;;;;;3.47;2.70;;;;;;;;;;5035095;28;20041;-65
2022/07/17 08:24:59;;;;;;;4.10;2.40;;;;;;;;;;5035155;28;20071;-65
2022/07/17 08:27:27;;;;;;;7.22;3.08;;;;;;;;;;5034465;28;20037;-64
2022/07/17 08:29:55;;;;;;;9.80;2.92;;;;;;;;;;5034439;28;20034;-65
2022/07/17 08:32:28;;;;;;;4.45;2.58;;;;;;;;;;5034014;28;20043;-65
2022/07/17 08:34:55;;;;;;;4.22;3.28;;;;;;;;;;5034166;28;20495;-64
2022/07/17 08:37:24;;;;;;;3.10;2.10;;;;;;;;;;5033852;28;20103;-64
2022/07/17 08:39:52;;;;;;;7.50;4.10;;;;;;;;;;5033308;28;20384;-63
2022/07/17 08:42:20;;;;;;;6.68;3.75;;;;;;;;;;5034837;28;20052;-65
2022/07/17 08:44:47;;;;;;;3.20;2.63;;;;;;;;;;5034681;28;20084;-64
2022/07/17 08:47:15;;;;;;;5.45;2.47;;;;;;;;;;5034911;28;20498;-65
2022/07/17 08:49:47;;;;;;;31.52;27.17;;;;;;;;;;5034514;28;20154;-65
2022/07/17 08:52:14;;;;;;;10.52;7.45;;;;;;;;;;5034629;28;20037;-65
2022/07/17 08:54:42;;;;;;;4.88;4.10;;;;;;;;;;5034515;28;20129;-65
2022/07/17 08:57:11;;;;;;;3.47;2.97;;;;;;;;;;5033395;28;20058;-65
2022/07/17 08:59:38;;;;;;;4.50;2.80;;;;;;;;;;5034858;28;20044;-65
2022/07/17 09:02:06;;;;;;;5.47;3.38;;;;;;;;;;5034545;28;20443;-65
2022/07/17 09:04:33;;;;;;;11.00;8.30;;;;;;;;;;5034512;28;20116;-65
2022/07/17 09:07:05;;;;;;;12.20;9.35;;;;;;;;;;5034566;28;20041;-65
2022/07/17 09:09:33;;;;;;;13.43;7.90;;;;;;;;;;5033558;28;20503;-64
2022/07/17 09:12:03;;;;;;;8.93;4.93;;;;;;;;;;5034522;28;20037;-64
2022/07/17 09:14:40;;;;;;;6.80;5.22;;;;;;;;;;5034489;28;20486;-64
2022/07/17 09:17:09;;;;;;;4.65;3.53;;;;;;;;;;5033949;28;20140;-64
2022/07/17 09:19:37;;;;;;;8.38;4.95;;;;;;;;;;5037329;28;20567;-64
2022/07/17 09:22:10;;;;;;;5.75;4.65;;;;;;;;;;5038689;28;20048;-65
2022/07/17 09:24:47;;;;;;;6.07;4.03;;;;;;;;;;5047378;28;20068;-65
2022/07/17 09:27:18;;;;;;;5.38;4.57;;;;;;;;;;5045422;28;20041;-63
2022/07/17 09:29:52;;;;;;;5.22;3.28;;;;;;;;;;5052428;28;20091;-64
2022/07/17 09:32:21;;;;;;;7.45;4.47;;;;;;;;;;5052393;28;20505;-65
2022/07/17 09:34:50;;;;;;;5.72;2.67;;;;;;;;;;5038718;28;20037;-63
2022/07/17 09:37:18;;;;;;;9.13;6.30;;;;;;;;;;5052591;28;20069;-64
2022/07/17 09:39:45;;;;;;;5.70;3.08;;;;;;;;;;5052637;28;20041;-66
2022/07/17 09:42:23;;;;;;;10.77;2.95;;;;;;;;;;5052757;28;20037;-65
2022/07/17 09:45:02;;;;;;;7.47;4.03;;;;;;;;;;5052120;28;20136;-65
2022/07/17 09:47:31;;;;;;;8.90;4.65;;;;;;;;;;5051156;28;20041;-65
2022/07/17 09:50:00;;;;;;;7.25;3.80;;;;;;;;;;5048628;28;20033;-65
2022/07/17 09:52:32;;;;;;;4.53;3.00;;;;;;;;;;5042538;28;20402;-64
2022/07/17 09:55:01;;;;;;;6.07;3.85;;;;;;;;;;5037485;28;20042;-65
2022/07/17 09:57:49;;;;;;;6.78;4.05;;;;;;;;;;5045978;28;20037;-64
2022/07/17 10:00:17;;;;;;;8.98;4.32;;;;;;;;;;5047228;28;20037;-65
2022/07/17 10:02:50;;;;;;;5.03;3.40;;;;;;;;;;5032403;28;20076;-65
2022/07/17 10:05:18;;;;;;;6.70;2.88;;;;;;;;;;5035743;28;20277;-63
2022/07/17 10:07:47;;;;;;;7.78;4.28;;;;;;;;;;5052711;28;20044;-63
2022/07/17 10:10:16;;;;;;;31.88;26.67;;;;;;;;;;5052457;28;20037;-64
2022/07/17 10:12:44;;;;;;;7.30;4.63;;;;;;;;;;5052497;28;20041;-63
2022/07/17 10:15:11;;;;;;;15.95;9.63;;;;;;;;;;5052694;28;20047;-63
2022/07/17 10:17:39;;;;;;;7.15;3.42;;;;;;;;;;5052311;28;20433;-63
2022/07/17 10:20:13;;;;;;;7.28;3.50;;;;;;;;;;5052747;28;20399;-64
2022/07/17 10:22:42;;;;;;;5.78;3.28;;;;;;;;;;5024463;28;20112;-63
2022/07/17 10:25:13;;;;;;;10.73;9.07;;;;;;;;;;5040159;28;20065;-64
2022/07/17 10:27:48;;;;;;;6.70;5.25;;;;;;;;;;5047870;28;20127;-66
2022/07/17 10:30:20;;;;;;;6.05;5.22;;;;;;;;;;5045471;28;20526;-64
2022/07/17 10:32:52;;;;;;;8.23;4.20;;;;;;;;;;5032003;28;20135;-63
2022/07/17 10:35:19;;;;;;;20.42;13.77;;;;;;;;;;5031658;28;20499;-63
2022/07/17 10:37:50;;;;;;;7.40;5.72;;;;;;;;;;5031396;28;20439;-63
2022/07/17 10:40:22;;;;;;;8.70;4.43;;;;;;;;;;5031195;28;20247;-63
2022/07/17 10:42:52;;;;;;;6.60;4.40;;;;;;;;;;5029859;28;20045;-62
2022/07/17 10:45:28;;;;;;;6.95;4.00;;;;;;;;;;5031196;28;20056;-62
2022/07/17 10:47:55;;;;;;;9.20;5.72;;;;;;;;;;5029716;28;20068;-64
2022/07/17 10:50:24;;;;;;;9.15;5.35;;;;;;;;;;5031417;28;20044;-62
2022/07/17 10:53:01;;;;;;;12.50;9.15;;;;;;;;;;5031922;28;20042;-62
2022/07/17 10:55:29;;;;;;;13.55;6.38;;;;;;;;;;5031688;28;20052;-62
2022/07/17 10:57:57;;;;;;;5.13;2.90;;;;;;;;;;5032035;28;20049;-62
2022/07/17 11:00:24;;;;;;;10.05;6.57;;;;;;;;;;5031659;28;20049;-62
2022/07/17 11:02:53;;;;;;;6.20;3.55;;;;;;;;;;5031754;28;20041;-64
2022/07/17 11:05:22;;;;;;;6.95;3.75;;;;;;;;;;5031472;28;20038;-62
2022/07/17 11:07:58;;;;;;;6.65;3.40;;;;;;;;;;5031840;28;20033;-63
2022/07/17 11:10:27;;;;;;;11.00;3.13;;;;;;;;;;5031786;28;20538;-64
2022/07/17 11:12:56;;;;;;;8.07;3.85;;;;;;;;;;5031876;28;20049;-64
2022/07/17 11:15:24;;;;;;;6.70;4.78;;;;;;;;;;5031807;28;20426;-63
2022/07/17 11:17:51;;;;;;;7.55;6.07;;;;;;;;;;5040310;28;20102;-64
2022/07/17 11:20:19;;;;;;;8.27;3.17;;;;;;;;;;5033361;28;20041;-63
2022/07/17 11:22:46;;;;;;;6.65;3.22;;;;;;;;;;5039569;28;20045;-63
2022/07/17 11:25:14;;;;;;;5.32;3.95;;;;;;;;;;5028583;28;20099;-64
2022/07/17 11:27:41;;;;;;;8.93;4.75;;;;;;;;;;5050674;28;20112;-64
2022/07/17 11:30:13;;;;;;;3.42;2.92;;;;;;;;;;5051895;28;20048;-65
2022/07/17 11:32:42;;;;;;;11.85;8.38;;;;;;;;;;5053739;28;20434;-64
2022/07/17 11:35:16;;;;;;;9.10;7.20;;;;;;;;;;5055978;28;20052;-64
2022/07/17 11:38:04;;;;;;;5.43;3.50;;;;;;;;;;5055961;28;20483;-63
2022/07/17 11:40:32;;;;;;;4.50;3.05;;;;;;;;;;5054828;28;20049;-63
2022/07/17 11:43:04;;;;;;;5.75;3.40;;;;;;;;;;5054545;28;20037;-64
2022/07/17 11:45:32;;;;;;;4.90;3.15;;;;;;;;;;5050265;28;20076;-64
2022/07/17 11:48:03;;;;;;;4.25;2.85;;;;;;;;;;5049746;28;20533;-63
2022/07/17 11:50:30;;;;;;;7.90;3.25;;;;;;;;;;5051058;28;20407;-64
2022/07/17 11:53:01;;;;;;;7.53;3.33;;;;;;;;;;5052748;28;20036;-64
2022/07/17 11:55:55;;;;;;;9.57;3.75;;;;;;;;;;5053588;28;20414;-64
2022/07/17 11:58:23;;;;;;;6.50;3.20;;;;;;;;;;5026804;28;20077;-63
2022/07/17 12:01:00;;;;;;;6.45;4.10;;;;;;;;;;5035280;28;20033;-63
2022/07/17 12:03:27;;;;;;;7.57;5.40;;;;;;;;;;5047258;28;20048;-65
2022/07/17 12:05:55;;;;;;;7.63;5.50;;;;;;;;;;5052605;28;20043;-63
2022/07/17 12:08:23;;;;;;;7.65;5.65;;;;;;;;;;5038418;28;20073;-64
2022/07/17 12:11:00;;;;;;;7.18;4.60;;;;;;;;;;5034389;28;20045;-64
2022/07/17 12:13:42;;;;;;;7.32;4.18;;;;;;;;;;5043539;28;20046;-64
2022/07/17 12:16:24;;;;;;;4.72;3.90;;;;;;;;;;5034256;28;20046;-63
2022/07/17 12:19:00;;;;;;;8.05;3.88;;;;;;;;;;5031167;28;20053;-63
2022/07/17 12:21:28;;;;;;;9.65;3.88;;;;;;;;;;5034110;28;20045;-63
2022/07/17 12:24:03;;;;;;;51.10;6.07;;;;;;;;;;5033935;28;20443;-63
2022/07/17 12:26:31;;;;;;;6.63;3.55;;;;;;;;;;5042797;28;20118;-64
2022/07/17 12:29:00;;;;;;;7.93;4.05;;;;;;;;;;5038187;28;20099;-64
2022/07/17 12:31:28;;;;;;;7.53;4.13;;;;;;;;;;5038347;28;20106;-64
2022/07/17 12:33:56;;;;;;;6.22;3.42;;;;;;;;;;5050209;28;20087;-64
2022/07/17 12:36:24;;;;;;;6.43;3.50;;;;;;;;;;5053233;28;20029;-64
2022/07/17 12:38:52;;;;;;;6.38;3.35;;;;;;;;;;5053849;28;20431;-64
2022/07/17 12:41:20;;;;;;;5.72;3.35;;;;;;;;;;5048846;28;20543;-64
2022/07/17 12:43:48;;;;;;;6.50;3.78;;;;;;;;;;5050408;28;20052;-64
2022/07/17 12:46:16;;;;;;;5.68;3.20;;;;;;;;;;5049553;28;20124;-62
2022/07/17 12:48:45;;;;;;;6.57;3.30;;;;;;;;;;5048269;28;20116;-63
2022/07/17 12:51:13;;;;;;;5.28;2.85;;;;;;;;;;5049771;28;20041;-64
2022/07/17 12:53:42;;;;;;;7.63;2.70;;;;;;;;;;5049570;28;20045;-64
2022/07/17 12:56:09;;;;;;;6.15;2.85;;;;;;;;;;5034001;28;20042;-64
2022/07/17 12:58:38;;;;;;;4.85;3.13;;;;;;;;;;5034140;28;20045;-64
2022/07/17 13:01:06;;;;;;;6.80;3.50;;;;;;;;;;5033931;28;20037;-64
2022/07/17 13:03:34;;;;;;;7.05;3.63;;;;;;;;;;5042987;28;20534;-64
2022/07/17 13:06:02;;;;;;;6.43;3.38;;;;;;;;;;5047029;28;20041;-64
2022/07/17 13:08:30;;;;;;;6.70;3.30;;;;;;;;;;5043182;28;20120;-64
2022/07/17 13:10:58;;;;;;;6.03;3.25;;;;;;;;;;5048014;28;20041;-64
2022/07/17 13:13:28;;;;;;;7.43;4.07;;;;;;;;;;5051147;28;20059;-64
2022/07/17 13:15:56;;;;;;;16.50;11.85;;;;;;;;;;5037623;28;20049;-64
2022/07/17 13:18:23;;;;;;;6.07;3.70;;;;;;;;;;5034105;28;20037;-64
2022/07/17 13:20:51;;;;;;;6.93;3.75;;;;;;;;;;5033296;28;20041;-64
2022/07/17 13:23:28;;;;;;;6.18;4.03;;;;;;;;;;5022044;28;20048;-63
2022/07/17 13:25:55;;;;;;;4.82;3.55;;;;;;;;;;5037880;28;20037;-63
2022/07/17 13:28:23;;;;;;;5.18;3.10;;;;;;;;;;5051365;28;20528;-63
2022/07/17 13:30:50;;;;;;;4.38;3.10;;;;;;;;;;5033155;28;20045;-62
2022/07/17 13:33:18;;;;;;;9.63;3.08;;;;;;;;;;5043340;28;20045;-62
2022/07/17 13:35:45;;;;;;;5.72;3.50;;;;;;;;;;5033618;28;20052;-62
2022/07/17 13:38:14;;;;;;;7.78;5.25;;;;;;;;;;5033540;28;20037;-62
2022/07/17 13:40:42;;;;;;;22.92;17.58;;;;;;;;;;5033652;28;20033;-62
2022/07/17 13:43:09;;;;;;;6.80;4.18;;;;;;;;;;5033372;28;20045;-62
2022/07/17 13:45:37;;;;;;;4.43;3.05;;;;;;;;;;5033052;28;20395;-62
2022/07/17 13:48:04;;;;;;;3.50;2.90;;;;;;;;;;5035842;28;20392;-62
2022/07/17 13:50:32;;;;;;;4.57;3.50;;;;;;;;;;5038379;28;20049;-63
2022/07/17 13:53:01;;;;;;;9.18;3.45;;;;;;;;;;5050209;28;20120;-62
2022/07/17 13:55:29;;;;;;;8.20;5.10;;;;;;;;;;5050461;28;20593;-62
2022/07/17 13:58:09;;;;;;;7.70;4.90;;;;;;;;;;5046510;28;20049;-62
2022/07/17 14:00:36;;;;;;;10.27;7.00;;;;;;;;;;5051995;28;20037;-62
2022/07/17 14:03:05;;;;;;;9.93;4.07;;;;;;;;;;5041557;28;20049;-62
2022/07/17 14:05:32;;;;;;;6.88;3.28;;;;;;;;;;5051914;28;20098;-62
2022/07/17 14:08:00;;;;;;;6.45;3.67;;;;;;;;;;5047602;28;20364;-62
2022/07/17 14:10:27;;;;;;;9.95;3.20;;;;;;;;;;5050254;28;20629;-62
2022/07/17 14:12:55;;;;;;;9.85;3.00;;;;;;;;;;5046205;28;20068;-63
2022/07/17 14:15:23;;;;;;;10.82;6.63;;;;;;;;;;5050066;28;20045;-63
2022/07/17 14:17:50;;;;;;;6.40;2.67;;;;;;;;;;5041217;28;20084;-61
2022/07/17 14:20:18;;;;;;;13.80;3.05;;;;;;;;;;5040506;28;20042;-62
2022/07/17 14:22:45;;;;;;;6.93;2.60;;;;;;;;;;5032574;28;20373;-62
2022/07/17 14:25:13;;;;;;;11.32;3.85;;;;;;;;;;5032804;28;20045;-62
2022/07/17 14:27:41;;;;;;;8.95;2.88;;;;;;;;;;5051236;28;20048;-62
2022/07/17 14:30:09;;;;;;;7.30;2.67;;;;;;;;;;5052506;28;20498;-62
2022/07/17 14:32:38;;;;;;;11.57;3.00;;;;;;;;;;5047396;28;20064;-62
2022/07/17 14:35:06;;;;;;;7.32;2.83;;;;;;;;;;5048942;28;20112;-62
2022/07/17 14:37:34;;;;;;;7.90;2.90;;;;;;;;;;5042088;28;20037;-62
2022/07/17 14:40:10;;;;;;;33.00;22.33;;;;;;;;;;5048498;28;20102;-62
2022/07/17 14:42:37;;;;;;;11.25;4.47;;;;;;;;;;5049543;28;20041;-62
2022/07/17 14:45:05;;;;;;;6.00;2.60;;;;;;;;;;5047646;28;20546;-62
2022/07/17 14:47:32;;;;;;;18.92;3.90;;;;;;;;;;5043528;28;20040;-62
2022/07/17 14:50:00;;;;;;;10.43;3.78;;;;;;;;;;5036663;28;20392;-62